ITY3PV LIML-LSZB
Flight info
| Callsign | ITY3PV |
|---|---|
| Flight time | 0h 38m |
| Altitude | 18000 |
| Route | PEPAG L995 CANNE Z651 MANEG L613 DITON T163 ROTOS |
| Aircraft | A319/M-SDE3FGHIRWY/LB1 |
Departure
| Time | 2026-04-22 17:52 |
|---|---|
| Airport | Milano Linate Airport (LIML) |
Arrival
| Time | 2026-04-22 18:30 |
|---|---|
| Airport | Bern Airport (LSZB) |
| Time | Latitude | Longitude | Altitude | Speed | Heading |
|---|---|---|---|---|---|
| 2026-04-22 17:29 | 45.45774 | 9.27894 | 362 ft | 0 kts | 90° |
| 2026-04-22 17:46 | 45.45774 | 9.27913 | 362 ft | 4 kts | 90° |
| 2026-04-22 17:46 | 45.45768 | 9.27969 | 360 ft | 7 kts | 123° |
| 2026-04-22 17:46 | 45.45709 | 9.27982 | 360 ft | 11 kts | 180° |
| 2026-04-22 17:47 | 45.45622 | 9.27980 | 366 ft | 14 kts | 181° |
| 2026-04-22 17:47 | 45.45520 | 9.27978 | 360 ft | 15 kts | 180° |
| 2026-04-22 17:47 | 45.45409 | 9.27977 | 360 ft | 16 kts | 181° |
| 2026-04-22 17:47 | 45.45300 | 9.27915 | 362 ft | 18 kts | 207° |
| 2026-04-22 17:48 | 45.45180 | 9.27868 | 360 ft | 19 kts | 178° |
| 2026-04-22 17:48 | 45.45048 | 9.27883 | 360 ft | 20 kts | 175° |
| 2026-04-22 17:48 | 45.44911 | 9.27915 | 362 ft | 20 kts | 163° |
| 2026-04-22 17:48 | 45.44768 | 9.27947 | 363 ft | 21 kts | 176° |
| 2026-04-22 17:49 | 45.44616 | 9.27963 | 362 ft | 22 kts | 175° |
| 2026-04-22 17:49 | 45.44462 | 9.27980 | 360 ft | 23 kts | 175° |
| 2026-04-22 17:49 | 45.44299 | 9.27997 | 360 ft | 24 kts | 175° |
| 2026-04-22 17:49 | 45.44132 | 9.28016 | 360 ft | 24 kts | 175° |
| 2026-04-22 17:50 | 45.43961 | 9.28035 | 364 ft | 25 kts | 175° |
| 2026-04-22 17:50 | 45.43785 | 9.28053 | 363 ft | 26 kts | 176° |
| 2026-04-22 17:50 | 45.43608 | 9.28074 | 361 ft | 26 kts | 176° |
| 2026-04-22 17:50 | 45.43462 | 9.28055 | 361 ft | 19 kts | 225° |
| 2026-04-22 17:51 | 45.43439 | 9.27871 | 363 ft | 19 kts | 270° |
| 2026-04-22 17:51 | 45.43545 | 9.27809 | 362 ft | 22 kts | 356° |
| 2026-04-22 17:51 | 45.43975 | 9.27764 | 364 ft | 103 kts | 355° |
| 2026-04-22 17:51 | 45.44924 | 9.27677 | 454 ft | 157 kts | 0° |
| 2026-04-22 17:52 | 45.45987 | 9.27586 | 1275 ft | 152 kts | 357° |
| 2026-04-22 17:52 | 45.47036 | 9.27449 | 2023 ft | 152 kts | 358° |
| 2026-04-22 17:52 | 45.48140 | 9.27307 | 2545 ft | 170 kts | 357° |
| 2026-04-22 17:52 | 45.49400 | 9.27155 | 3000 ft | 193 kts | 357° |
| 2026-04-22 17:53 | 45.50834 | 9.26994 | 3454 ft | 219 kts | 357° |
| 2026-04-22 17:53 | 45.52436 | 9.26816 | 4074 ft | 240 kts | 357° |
| 2026-04-22 17:53 | 45.54116 | 9.26820 | 5063 ft | 245 kts | 14° |
| 2026-04-22 17:53 | 45.55561 | 9.28075 | 6048 ft | 252 kts | 49° |
| 2026-04-22 17:54 | 45.56309 | 9.30426 | 6805 ft | 270 kts | 78° |
| 2026-04-22 17:54 | 45.56617 | 9.33092 | 7809 ft | 274 kts | 72° |
| 2026-04-22 17:54 | 45.57635 | 9.35362 | 8790 ft | 277 kts | 39° |
| 2026-04-22 17:54 | 45.59341 | 9.36595 | 9871 ft | 278 kts | 14° |
| 2026-04-22 17:55 | 45.61280 | 9.36769 | 10761 ft | 288 kts | 353° |
| 2026-04-22 17:55 | 45.63235 | 9.35742 | 11130 ft | 315 kts | 330° |
| 2026-04-22 17:55 | 45.65175 | 9.34042 | 11452 ft | 340 kts | 329° |
| 2026-04-22 17:55 | 45.67229 | 9.32207 | 11992 ft | 353 kts | 329° |
| 2026-04-22 17:56 | 45.69328 | 9.30325 | 12778 ft | 359 kts | 328° |
| 2026-04-22 17:56 | 45.71462 | 9.28417 | 13607 ft | 363 kts | 329° |
| 2026-04-22 17:56 | 45.73619 | 9.26495 | 14379 ft | 368 kts | 329° |
| 2026-04-22 17:56 | 45.75806 | 9.24556 | 15133 ft | 371 kts | 329° |
| 2026-04-22 17:57 | 45.78014 | 9.22605 | 15898 ft | 374 kts | 329° |
| 2026-04-22 17:57 | 45.80241 | 9.20639 | 16658 ft | 378 kts | 329° |
| 2026-04-22 17:57 | 45.82490 | 9.18650 | 17414 ft | 381 kts | 329° |
| 2026-04-22 17:57 | 45.84725 | 9.16670 | 17972 ft | 385 kts | 329° |
| 2026-04-22 17:58 | 45.87005 | 9.14648 | 18138 ft | 387 kts | 329° |
| 2026-04-22 17:58 | 45.89361 | 9.12558 | 18163 ft | 408 kts | 329° |
| 2026-04-22 17:58 | 45.91815 | 9.10378 | 18154 ft | 420 kts | 329° |
| 2026-04-22 17:58 | 45.94314 | 9.08152 | 18476 ft | 424 kts | 329° |
| 2026-04-22 17:59 | 45.96790 | 9.05937 | 19369 ft | 416 kts | 329° |
| 2026-04-22 17:59 | 45.99243 | 9.03741 | 20077 ft | 414 kts | 329° |
| 2026-04-22 17:59 | 46.01689 | 9.01550 | 20710 ft | 414 kts | 328° |
| 2026-04-22 17:59 | 46.04143 | 8.99352 | 21219 ft | 417 kts | 329° |
| 2026-04-22 18:00 | 46.05771 | 8.97892 | 21570 ft | 418 kts | 328° |
| 2026-04-22 18:00 | 46.09081 | 8.94925 | 22283 ft | 419 kts | 328° |
| 2026-04-22 18:00 | 46.11561 | 8.92705 | 22816 ft | 421 kts | 328° |
| 2026-04-22 18:00 | 46.14060 | 8.90481 | 23315 ft | 422 kts | 330° |
| 2026-04-22 18:01 | 46.16691 | 8.88717 | 23782 ft | 424 kts | 340° |
| 2026-04-22 18:01 | 46.19574 | 8.87670 | 23947 ft | 432 kts | 350° |
| 2026-04-22 18:01 | 46.22588 | 8.87210 | 24187 ft | 437 kts | 353° |
| 2026-04-22 18:01 | 46.25613 | 8.86777 | 24662 ft | 436 kts | 353° |
| 2026-04-22 18:02 | 46.28614 | 8.86340 | 25275 ft | 432 kts | 352° |
| 2026-04-22 18:02 | 46.31598 | 8.85896 | 25855 ft | 428 kts | 352° |
| 2026-04-22 18:02 | 46.34556 | 8.85449 | 26114 ft | 427 kts | 352° |
| 2026-04-22 18:02 | 46.37509 | 8.84999 | 26143 ft | 426 kts | 351° |
| 2026-04-22 18:03 | 46.40446 | 8.84552 | 26159 ft | 423 kts | 351° |
| 2026-04-22 18:03 | 46.43356 | 8.84109 | 26151 ft | 421 kts | 351° |
| 2026-04-22 18:03 | 46.46276 | 8.83670 | 26152 ft | 421 kts | 351° |
| 2026-04-22 18:03 | 46.49189 | 8.83230 | 26155 ft | 421 kts | 351° |
| 2026-04-22 18:04 | 46.52106 | 8.82789 | 26156 ft | 422 kts | 351° |
| 2026-04-22 18:04 | 46.55020 | 8.82345 | 26157 ft | 422 kts | 351° |
| 2026-04-22 18:04 | 46.57945 | 8.81901 | 26159 ft | 422 kts | 351° |
| 2026-04-22 18:04 | 46.60861 | 8.81459 | 26155 ft | 421 kts | 351° |
| 2026-04-22 18:05 | 46.63775 | 8.81016 | 26164 ft | 420 kts | 352° |
| 2026-04-22 18:05 | 46.66695 | 8.80577 | 26157 ft | 422 kts | 352° |
| 2026-04-22 18:05 | 46.69618 | 8.80140 | 26152 ft | 423 kts | 352° |
| 2026-04-22 18:05 | 46.72549 | 8.79698 | 26141 ft | 424 kts | 352° |
| 2026-04-22 18:06 | 46.75486 | 8.79250 | 26143 ft | 424 kts | 352° |
| 2026-04-22 18:06 | 46.78420 | 8.78801 | 26152 ft | 424 kts | 352° |
| 2026-04-22 18:06 | 46.81352 | 8.78349 | 26146 ft | 424 kts | 352° |
| 2026-04-22 18:06 | 46.84303 | 8.77895 | 25965 ft | 425 kts | 352° |
| 2026-04-22 18:07 | 46.87248 | 8.77447 | 25763 ft | 426 kts | 352° |
| 2026-04-22 18:07 | 46.90158 | 8.77005 | 25576 ft | 427 kts | 352° |
| 2026-04-22 18:07 | 46.93120 | 8.76553 | 25375 ft | 428 kts | 352° |
| 2026-04-22 18:07 | 46.96079 | 8.76100 | 25180 ft | 429 kts | 352° |
| 2026-04-22 18:08 | 46.99049 | 8.75640 | 24996 ft | 430 kts | 353° |
| 2026-04-22 18:08 | 47.02021 | 8.75152 | 24803 ft | 430 kts | 350° |
| 2026-04-22 18:08 | 47.04886 | 8.73944 | 24616 ft | 429 kts | 336° |
| 2026-04-22 18:08 | 47.07419 | 8.71639 | 24418 ft | 432 kts | 321° |
| 2026-04-22 18:09 | 47.09441 | 8.68367 | 24181 ft | 436 kts | 306° |
| 2026-04-22 18:09 | 47.10752 | 8.64328 | 23936 ft | 443 kts | 289° |
| 2026-04-22 18:09 | 47.11305 | 8.59877 | 23692 ft | 448 kts | 280° |
| 2026-04-22 18:09 | 47.11714 | 8.55325 | 23410 ft | 449 kts | 280° |
| 2026-04-22 18:10 | 47.12121 | 8.50765 | 23130 ft | 450 kts | 280° |
| 2026-04-22 18:10 | 47.12528 | 8.46200 | 22854 ft | 451 kts | 280° |
| 2026-04-22 18:10 | 47.12936 | 8.41646 | 22587 ft | 452 kts | 280° |
| 2026-04-22 18:10 | 47.13350 | 8.37055 | 22308 ft | 451 kts | 280° |
| 2026-04-22 18:11 | 47.13763 | 8.32507 | 22039 ft | 449 kts | 280° |
| 2026-04-22 18:11 | 47.14175 | 8.27963 | 21774 ft | 448 kts | 280° |
| 2026-04-22 18:11 | 47.14577 | 8.23494 | 21487 ft | 447 kts | 280° |
| 2026-04-22 18:11 | 47.14984 | 8.18904 | 21141 ft | 447 kts | 279° |
| 2026-04-22 18:12 | 47.15380 | 8.14387 | 20758 ft | 445 kts | 279° |
| 2026-04-22 18:12 | 47.15775 | 8.09889 | 20381 ft | 443 kts | 279° |
| 2026-04-22 18:12 | 47.16035 | 8.06921 | 20128 ft | 442 kts | 280° |
| 2026-04-22 18:12 | 47.16551 | 8.00997 | 19629 ft | 440 kts | 279° |
| 2026-04-22 18:13 | 47.16935 | 7.96547 | 19312 ft | 438 kts | 279° |
| 2026-04-22 18:13 | 47.17316 | 7.92108 | 19058 ft | 438 kts | 279° |
| 2026-04-22 18:13 | 47.17696 | 7.87668 | 18817 ft | 437 kts | 279° |
| 2026-04-22 18:13 | 47.18076 | 7.83246 | 18583 ft | 435 kts | 279° |
| 2026-04-22 18:14 | 47.18370 | 7.78830 | 18315 ft | 431 kts | 274° |
| 2026-04-22 18:14 | 47.18201 | 7.74516 | 18038 ft | 416 kts | 264° |
| 2026-04-22 18:14 | 47.17571 | 7.70436 | 17766 ft | 405 kts | 254° |
| 2026-04-22 18:14 | 47.16547 | 7.66646 | 17492 ft | 395 kts | 246° |
| 2026-04-22 18:15 | 47.15220 | 7.63176 | 17219 ft | 384 kts | 241° |
| 2026-04-22 18:15 | 47.13879 | 7.59851 | 16964 ft | 373 kts | 241° |
| 2026-04-22 18:15 | 47.12703 | 7.56526 | 16702 ft | 360 kts | 249° |
| 2026-04-22 18:15 | 47.11968 | 7.53072 | 16435 ft | 348 kts | 260° |
| 2026-04-22 18:16 | 47.11441 | 7.49677 | 16194 ft | 333 kts | 260° |
| 2026-04-22 18:16 | 47.10931 | 7.46444 | 15915 ft | 318 kts | 258° |
| 2026-04-22 18:16 | 47.10441 | 7.43352 | 15659 ft | 304 kts | 259° |
| 2026-04-22 18:16 | 47.09974 | 7.40429 | 15408 ft | 291 kts | 257° |
| 2026-04-22 18:17 | 47.09254 | 7.37733 | 15159 ft | 281 kts | 241° |
| 2026-04-22 18:17 | 47.08021 | 7.35488 | 14925 ft | 279 kts | 223° |
| 2026-04-22 18:17 | 47.06449 | 7.33943 | 14671 ft | 274 kts | 202° |
| 2026-04-22 18:17 | 47.04619 | 7.33621 | 14430 ft | 264 kts | 166° |
| 2026-04-22 18:18 | 47.02987 | 7.34704 | 14195 ft | 256 kts | 143° |
| 2026-04-22 18:18 | 47.01703 | 7.36440 | 13940 ft | 248 kts | 120° |
| 2026-04-22 18:18 | 47.00943 | 7.38657 | 13666 ft | 242 kts | 108° |
| 2026-04-22 18:18 | 47.00475 | 7.40996 | 13416 ft | 239 kts | 102° |
| 2026-04-22 18:19 | 46.99996 | 7.43327 | 13146 ft | 239 kts | 105° |
| 2026-04-22 18:19 | 46.99468 | 7.45627 | 12883 ft | 238 kts | 107° |
| 2026-04-22 18:19 | 46.98922 | 7.47923 | 12627 ft | 238 kts | 107° |
| 2026-04-22 18:19 | 46.98375 | 7.50200 | 12298 ft | 238 kts | 107° |
| 2026-04-22 18:20 | 46.97834 | 7.52453 | 11997 ft | 232 kts | 107° |
| 2026-04-22 18:20 | 46.97304 | 7.54675 | 11559 ft | 230 kts | 108° |
| 2026-04-22 18:20 | 46.96783 | 7.56875 | 11174 ft | 226 kts | 108° |
| 2026-04-22 18:20 | 46.96266 | 7.59034 | 10801 ft | 224 kts | 110° |
| 2026-04-22 18:21 | 46.95502 | 7.61004 | 10436 ft | 223 kts | 124° |
| 2026-04-22 18:21 | 46.94568 | 7.62802 | 10079 ft | 221 kts | 126° |
| 2026-04-22 18:21 | 46.93647 | 7.64584 | 9698 ft | 219 kts | 125° |
| 2026-04-22 18:21 | 46.92739 | 7.66347 | 9331 ft | 215 kts | 125° |
| 2026-04-22 18:22 | 46.91855 | 7.68062 | 8984 ft | 212 kts | 127° |
| 2026-04-22 18:22 | 46.90946 | 7.69719 | 8642 ft | 206 kts | 134° |
| 2026-04-22 18:22 | 46.89852 | 7.71012 | 8310 ft | 200 kts | 144° |
| 2026-04-22 18:22 | 46.88727 | 7.72170 | 7975 ft | 195 kts | 144° |
| 2026-04-22 18:23 | 46.87628 | 7.73303 | 7644 ft | 191 kts | 144° |
| 2026-04-22 18:23 | 46.86559 | 7.74406 | 7328 ft | 186 kts | 144° |
| 2026-04-22 18:23 | 46.85446 | 7.75270 | 7176 ft | 178 kts | 162° |
| 2026-04-22 18:24 | 46.83028 | 7.75058 | 6967 ft | 178 kts | 204° |
| 2026-04-22 18:24 | 46.81967 | 7.74131 | 6859 ft | 178 kts | 211° |
| 2026-04-22 18:24 | 46.80049 | 7.71917 | 6674 ft | 179 kts | 237° |
| 2026-04-22 18:25 | 46.79630 | 7.70213 | 6417 ft | 179 kts | 260° |
| 2026-04-22 18:25 | 46.79416 | 7.68494 | 6126 ft | 166 kts | 259° |
| 2026-04-22 18:25 | 46.79211 | 7.66923 | 6003 ft | 148 kts | 259° |
| 2026-04-22 18:26 | 46.79629 | 7.64179 | 5493 ft | 143 kts | 313° |
| 2026-04-22 18:26 | 46.80368 | 7.63219 | 5197 ft | 140 kts | 322° |
| 2026-04-22 18:26 | 46.81106 | 7.62315 | 4897 ft | 137 kts | 323° |
| 2026-04-22 18:26 | 46.81829 | 7.61424 | 4644 ft | 135 kts | 323° |
| 2026-04-22 18:27 | 46.82548 | 7.60546 | 4476 ft | 135 kts | 323° |
| 2026-04-22 18:27 | 46.83265 | 7.59669 | 4198 ft | 134 kts | 321° |
| 2026-04-22 18:27 | 46.83736 | 7.59090 | 4041 ft | 134 kts | 322° |
| 2026-04-22 18:27 | 46.84449 | 7.58213 | 3847 ft | 134 kts | 323° |
| 2026-04-22 18:28 | 46.85161 | 7.57341 | 3556 ft | 133 kts | 321° |
| 2026-04-22 18:28 | 46.85869 | 7.56472 | 3372 ft | 133 kts | 322° |
| 2026-04-22 18:28 | 46.86575 | 7.55590 | 3136 ft | 133 kts | 323° |
| 2026-04-22 18:28 | 46.87511 | 7.54456 | 2785 ft | 131 kts | 323° |
| 2026-04-22 18:29 | 46.87982 | 7.53887 | 2598 ft | 129 kts | 323° |
| 2026-04-22 18:29 | 46.88672 | 7.53060 | 2373 ft | 128 kts | 322° |
| 2026-04-22 18:29 | 46.89351 | 7.52229 | 2210 ft | 126 kts | 321° |
| 2026-04-22 18:29 | 46.90022 | 7.51411 | 1970 ft | 128 kts | 322° |
| 2026-04-22 18:30 | 46.90715 | 7.50563 | 1758 ft | 129 kts | 321° |
| 2026-04-22 18:30 | 46.91424 | 7.49701 | 1679 ft | 2 kts | 328° |
| 2026-04-22 18:30 | 46.91452 | 7.49674 | 1678 ft | 6 kts | 287° |
| 2026-04-22 18:31 | 46.91440 | 7.49676 | 1687 ft | 1 kts | 136° |
| 2026-04-22 18:31 | 46.91416 | 7.49711 | 1683 ft | 9 kts | 139° |
| 2026-04-22 18:31 | 46.91350 | 7.49790 | 1680 ft | 14 kts | 140° |
| 2026-04-22 18:31 | 46.91274 | 7.49881 | 1683 ft | 12 kts | 141° |
| 2026-04-22 18:32 | 46.91246 | 7.49944 | 1691 ft | 6 kts | 76° |
| 2026-04-22 18:32 | 46.91268 | 7.49984 | 1690 ft | 5 kts | 49° |
| 2026-04-22 18:32 | 46.91273 | 7.50028 | 1700 ft | 4 kts | 128° |
| 2026-04-22 18:32 | 46.91256 | 7.50057 | 1718 ft | 2 kts | 102° |
| 2026-04-22 18:33 | 46.91266 | 7.50089 | 1729 ft | 5 kts | 62° |
| 2026-04-22 18:33 | 46.91272 | 7.50122 | 1729 ft | 1 kts | 96° |
| 2026-04-22 18:33 | 46.91271 | 7.50126 | 1729 ft | 0 kts | 101° |